Map

Track Data

SID SEASON NUMBER BASIN SUBBASIN NAME ISO_TIME NATURE LAT LON WMO_WIND WMO_PRES WMO_AGENCY TRACK_TYPE DIST2LAND LANDFALL IFLAG USA_AGENCY USA_ATCF_ID USA_LAT USA_LON USA_RECORD USA_STATUS USA_WIND USA_PRES USA_SSHS USA_R34_NE USA_R34_SE USA_R34_SW USA_R34_NW USA_R50_NE USA_R50_SE USA_R50_SW USA_R50_NW USA_R64_NE USA_R64_SE USA_R64_SW USA_R64_NW USA_POCI USA_ROCI USA_RMW USA_EYE TOKYO_LAT TOKYO_LON TOKYO_GRADE TOKYO_WIND TOKYO_PRES TOKYO_R50_DIR TOKYO_R50_LONG TOKYO_R50_SHORT TOKYO_R30_DIR TOKYO_R30_LONG TOKYO_R30_SHORT TOKYO_LAND CMA_LAT CMA_LON CMA_CAT CMA_WIND CMA_PRES HKO_LAT HKO_LON HKO_CAT HKO_WIND HKO_PRES NEWDELHI_LAT NEWDELHI_LON NEWDELHI_GRADE NEWDELHI_WIND NEWDELHI_PRES NEWDELHI_CI NEWDELHI_DP NEWDELHI_POCI REUNION_LAT REUNION_LON REUNION_TYPE REUNION_WIND REUNION_PRES REUNION_TNUM REUNION_CI REUNION_RMW REUNION_R34_NE REUNION_R34_SE REUNION_R34_SW REUNION_R34_NW REUNION_R50_NE REUNION_R50_SE REUNION_R50_SW REUNION_R50_NW REUNION_R64_NE REUNION_R64_SE REUNION_R64_SW REUNION_R64_NW BOM_LAT BOM_LON BOM_TYPE BOM_WIND BOM_PRES BOM_TNUM BOM_CI BOM_RMW BOM_R34_NE BOM_R34_SE BOM_R34_SW BOM_R34_NW BOM_R50_NE BOM_R50_SE BOM_R50_SW BOM_R50_NW BOM_R64_NE BOM_R64_SE BOM_R64_SW BOM_R64_NW BOM_ROCI BOM_POCI BOM_EYE BOM_POS_METHOD BOM_PRES_METHOD NADI_LAT NADI_LON NADI_CAT NADI_WIND NADI_PRES WELLINGTON_LAT WELLINGTON_LON WELLINGTON_WIND WELLINGTON_PRES DS824_LAT DS824_LON DS824_STAGE DS824_WIND DS824_PRES TD9636_LAT TD9636_LON TD9636_STAGE TD9636_WIND TD9636_PRES TD9635_LAT TD9635_LON TD9635_WIND TD9635_PRES TD9635_ROCI NEUMANN_LAT NEUMANN_LON NEUMANN_CLASS NEUMANN_WIND NEUMANN_PRES MLC_LAT MLC_LON MLC_CLASS MLC_WIND MLC_PRES USA_GUST BOM_GUST BOM_GUST_PER REUNION_GUST REUNION_GUST_PER USA_SEAHGT USA_SEARAD_NE USA_SEARAD_SE USA_SEARAD_SW USA_SEARAD_NW STORM_SPEED STORM_DIR
1963035S17151 1963 17 SP EA NOT_NAMED 1963-02-03 12:00:00 TS -17.0000 151.000 main 435 426 O_________O___ jtwc_sh SH281963 -17.0000 151.000 -1 -17.0000 151.000 2 3 149
1963035S17151 1963 17 SP EA NOT_NAMED 1963-02-03 15:00:00 TS -17.1476 151.090 main 432 422 P_________P___ SH281963 -17.1325 151.087 -1 -17.1779 151.094 2 3 126
1963035S17151 1963 17 SP EA NOT_NAMED 1963-02-03 17:00:00 TS -17.1331 151.195 1000 bom main 438 438 P_____O___P___ SH281963 -17.2381 151.158 -1 -16.0000 151.500 1000 -17.3008 151.168 2 5 58
1963035S17151 1963 17 SP EA NOT_NAMED 1963-02-03 18:00:00 TS -17.0273 151.292 main 453 441 O_____P__OP_O_ jtwc_sh SH281963 -17.3000 151.200 -1 -16.1895 151.514 1000 -16.2000 151.500 TC 30 1000 -17.3646 151.210 2 -16.0000 151.700 TC 30 1000 4 110
1963035S17151 1963 17 SP EA NOT_NAMED 1963-02-03 21:00:00 TS -17.2149 151.437 main 441 431 P_____P__PP_P_ SH281963 -17.5274 151.363 -1 -16.7189 151.532 1000 -16.6703 151.502 TC 30 1000 -17.5691 151.372 2 -16.5450 151.655 TC 30 1000 5 145
1963035S17151 1963 17 SP EA NOT_NAMED 1963-02-03 23:00:00 TS -17.3639 151.537 1000 bom main 431 431 P_____O__PP_P_ SH281963 -17.7057 151.511 -1 -17.0000 151.500 1000 -16.9638 151.551 TC 30 1000 -17.7195 151.515 2 -16.8639 151.670 TC 30 1000 6 148
1963035S17151 1963 17 SP EA NOT_NAMED 1963-02-04 00:00:00 TS -17.4494 151.595 main 438 421 O_____P__OO_O_ jtwc_sh SH281963 -17.8000 151.600 -1 -17.1089 151.466 999 -17.1000 151.600 TC 30 1000 -17.8000 151.600 2 -17.0000 151.700 TC 30 1000 7 145
1963035S17151 1963 17 SP EA NOT_NAMED 1963-02-04 03:00:00 TS -17.7588 151.825 main 421 421 P_____P__PP_P_ SH281963 -18.0925 151.927 -1 -17.3532 151.379 999 -17.4640 151.861 TC 30 1000 -18.0635 151.908 2 -17.3151 151.885 TC 32 999 8 140
1963035S17151 1963 17 SP EA NOT_NAMED 1963-02-04 06:00:00 TS -18.0671 152.144 main 425 425 O_____P__PP_O_ jtwc_sh SH281963 -18.4000 152.300 -1 -17.5977 151.531 998 -17.7998 152.245 TC 30 1000 -18.3556 152.270 2 -17.6000 152.100 TC 35 998 9 135
1963035S17151 1963 17 SP EA NOT_NAMED 1963-02-04 09:00:00 TS -18.4100 152.520 998 bom main 442 442 P_____O__PP_P_ SH281963 -18.7000 152.665 -1 -18.0000 152.200 998 -18.1605 152.681 TC 30 1000 -18.6698 152.646 2 -17.9471 152.126 TC 32 999 11 133
1963035S17151 1963 17 SP EA NOT_NAMED 1963-02-04 11:00:00 TS -18.6653 152.819 1000 bom main 455 455 P_____O__PP_P_ SH281963 -18.9000 152.895 -1 -18.4000 153.000 1000 -18.4414 152.966 TC 30 1000 -18.8885 152.887 2 -18.2326 152.204 TC 30 999 11 133
1963035S17151 1963 17 SP EA NOT_NAMED 1963-02-04 12:00:00 TS -18.8002 152.958 main 468 448 O_____P__OO_O_ jtwc_sh SH281963 -19.0000 153.000 -1 -18.6015 153.309 999 -18.6000 153.100 TC 30 1000 -19.0000 153.000 2 -18.4000 152.300 TC 30 1000 11 139
1963035S17151 1963 17 SP EA NOT_NAMED 1963-02-04 15:00:00 TS -19.2215 153.330 main 448 426 P_____P__PP_P_ SH281963 -19.2849 153.265 -1 -19.2194 153.844 998 -19.1719 153.377 TC 32 998 -19.2337 153.257 2 -19.0136 152.976 TC 32 998 11 144
1963035S17151 1963 17 SP EA NOT_NAMED 1963-02-04 18:00:00 TS -19.6841 153.629 main 426 410 O_____P__PP_O_ jtwc_sh SH281963 -19.6000 153.500 -1 -19.8626 153.983 996 -19.8292 153.630 TC 35 997 -19.4970 153.489 2 -19.7000 153.700 TC 35 997 10 153
1963035S17151 1963 17 SP EA NOT_NAMED 1963-02-04 21:00:00 TS -20.1510 153.832 main 403 390 P_____P__PP_P_ SH281963 -19.9099 153.728 -1 -20.5347 153.971 995 -20.5469 153.893 TC 37 995 -19.8618 153.727 2 -20.3343 153.989 TC 37 995 11 159
1963035S17151 1963 17 SP EA NOT_NAMED 1963-02-04 23:00:00 TS -20.5198 153.975 994 bom main 399 387 P_____O__PP_P_ SH281963 -20.2042 153.900 -1 -21.0000 154.000 994 4 -21.0466 154.091 TC 39 994 -20.1969 153.903 2 -20.7716 154.118 TC 39 994 13 158
1963035S17151 1963 17 SP EA NOT_NAMED 1963-02-05 00:00:00 TS -20.7309 154.077 main 396 389 O_____P__OO_O_ jtwc_sh SH281963 -20.4000 154.000 -1 -21.2161 154.139 994 -21.3000 154.200 TC 40 994 -20.4000 154.000 2 -21.0000 154.200 TC 40 994 16 154
1963035S17151 1963 17 SP EA NOT_NAMED 1963-02-05 03:00:00 TS -21.4967 154.475 main 388 323 P_____P__PP_P_ SH281963 -21.2026 154.377 -1 -21.8778 154.611 994 -21.9905 154.632 TC 40 994 -21.2158 154.348 2 -21.7350 154.613 TC 40 994 18 155
1963035S17151 1963 17 SP EA NOT_NAMED 1963-02-05 06:00:00 TS -22.3867 154.924 main 313 263 O_____P__PP_O_ jtwc_sh SH281963 -22.2000 154.800 -1 -22.5901 155.120 994 -22.7167 155.107 TC 40 994 -22.2005 154.739 2 -22.5000 155.100 TC 40 994 20 156
1963035S17151 1963 17 SP EA NOT_NAMED 1963-02-05 09:00:00 TS -23.3096 155.367 main 271 253 P_____P__PP_P_ SH281963 -23.2498 155.193 -1 -23.3935 155.611 994 -23.5093 155.579 TC 40 994 -23.2598 155.161 2 -23.1903 155.630 TC 40 994 21 157
1963035S17151 1963 17 SP EA NOT_NAMED 1963-02-05 11:00:00 TS -23.9508 155.653 994 bom main 258 248 P_____O__PP_P_ SH281963 -23.9592 155.461 -1 -24.0000 155.900 994 -24.0902 155.868 TC 40 994 -23.9611 155.453 2 -23.7045 155.959 TC 40 994 21 158
1963035S17151 1963 17 SP EA NOT_NAMED 1963-02-05 12:00:00 TS -24.2811 155.788 main 254 251 O_____P__OO_O_ jtwc_sh SH281963 -24.3000 155.600 -1 -24.3680 156.019 994 -24.4000 156.000 TC 40 994 -24.3000 155.600 2 -24.0000 156.100 TC 40 994 21 161
1963035S17151 1963 17 SP EA NOT_NAMED 1963-02-05 15:00:00 TS -25.2917 156.161 main 283 283 P_____P__PP_P_ SH281963 -25.2374 156.043 -1 -25.5805 156.329 995 -25.5228 156.316 TC 37 995 -25.2095 156.021 2 -25.0823 156.388 TC 37 995 21 162
1963035S17151 1963 17 SP EA NOT_NAMED 1963-02-05 18:00:00 TS -26.3080 156.516 main 338 333 O_____P__PP_O_ jtwc_sh SH281963 -26.1000 156.500 -1 -26.8473 156.579 997 -26.7276 156.575 TC 35 997 -26.0813 156.458 2 -26.3000 156.600 TC 35 997 21 162
1963035S17151 1963 17 SP EA NOT_NAMED 1963-02-05 21:00:00 TS -27.3048 156.873 main 339 333 P_____P__PP_P_ SH281963 -26.9297 156.936 -1 -28.0287 156.783 998 -27.8936 156.797 TC 32 998 -26.9125 156.915 2 -27.5674 156.865 TC 32 998 20 162
1963035S17151 1963 17 SP EA NOT_NAMED 1963-02-05 23:00:00 TS -27.9172 157.114 1000 bom main 344 343 P_____O__PP_P_ SH281963 -27.4498 157.239 -1 -28.7000 156.900 1000 -28.5897 156.933 TC 30 999 -27.4426 157.235 2 -28.3545 157.028 TC 30 999 19 160
1963035S17151 1963 17 SP EA NOT_NAMED 1963-02-06 00:00:00 TS -28.1977 157.233 main 352 352 O_____P__OO_O_ jtwc_sh SH281963 -27.7000 157.400 -1 -28.9839 156.934 1000 -28.9000 157.000 TC 30 1000 -27.7000 157.400 2 -28.7000 157.100 TC 30 1000 17 158
1963035S17151 1963 17 SP EA NOT_NAMED 1963-02-06 03:00:00 TS -28.9425 157.592 main 388 388 P_____P__PP_P_ SH281963 -28.4149 157.936 -1 -29.7082 157.042 1002 -29.6979 157.141 TC 25 1002 -28.4272 157.943 2 -29.5119 157.207 TC 27 1001 16 155
1963035S17151 1963 17 SP EA NOT_NAMED 1963-02-06 05:00:00 TS -29.3786 157.865 1004 bom main 420 420 P_____O__PP_P_ SH281963 -28.8719 158.312 -1 -30.1000 157.200 1004 -30.1223 157.288 TC 21 1003 -28.8885 158.320 2 -29.9211 157.310 TC 25 1002 15 150
1963035S17151 1963 17 SP EA NOT_NAMED 1963-02-06 06:00:00 TS -29.5875 158.019 main 433 433 O_____P__OP_O_ jtwc_sh SH281963 -29.1000 158.500 -1 -30.2968 157.322 1003 -30.3000 157.400 TC 20 1004 -29.1155 158.510 2 -30.1000 157.400 TC 25 1003 15 142
1963035S17151 1963 17 SP EA NOT_NAMED 1963-02-06 09:00:00 TS -30.1626 158.580 main 504 504 P_____P__PP_P_ SH281963 -29.7849 159.066 -1 -30.7820 157.842 1001 -30.7324 157.910 TC 25 1002 -29.7960 159.071 2 -30.5761 157.863 TC 30 1001 15 138
1963035S17151 1963 17 SP EA NOT_NAMED 1963-02-06 11:00:00 TS -30.5202 159.002 1000 bom main 550 550 P_____O__PP_P_ SH281963 -30.2552 159.428 -1 -31.0000 158.300 1000 -30.9244 158.356 TC 28 1000 -30.2608 159.429 2 -30.8615 158.279 TC 33 1000 15 133
1963035S17151 1963 17 SP EA NOT_NAMED 1963-02-06 12:00:00 TS -30.6893 159.230 main 572 572 O_____P__OO_O_ jtwc_sh SH281963 -30.5000 159.600 -1 -31.0579 158.561 999 -31.0000 158.600 TC 30 1000 -30.5000 159.600 2 -31.0000 158.500 TC 35 1000 16 134
1963035S17151 1963 17 SP EA NOT_NAMED 1963-02-06 15:00:00 TS -31.2364 159.872 main 646 646 P_____P__PP___ SH281963 -31.2848 160.073 -1 -31.1246 159.434 998 -31.1735 159.380 TC 32 999 -31.2502 160.076 2 TC 16 138
1963035S17151 1963 17 SP MM NOT_NAMED 1963-02-06 17:00:00 TS -31.6512 160.258 998 bom main 685 685 P_____O__PP___ SH281963 -31.8280 160.361 -1 -31.2000 160.000 998 -31.2605 159.925 TC 34 998 -31.7675 160.371 2 TC 17 144
1963035S17151 1963 17 SP MM NOT_NAMED 1963-02-06 18:00:00 TS -31.9234 160.451 main 705 705 O_____P__OP___ jtwc_sh SH281963 -32.1000 160.500 -1 -31.2805 160.253 998 -31.3000 160.200 TC 35 998 -32.0317 160.514 2 18 153
1963035S17151 1963 17 SP MM NOT_NAMED 1963-02-06 21:00:00 TS -32.7368 160.918 main 756 756 P_____P___P___ SH281963 -32.8774 160.916 -1 -31.6720 160.908 998 TC -32.8474 160.920 2 19 156
1963035S17151 1963 17 SP MM NOT_NAMED 1963-02-06 23:00:00 TS -33.3318 161.184 998 bom main 799 802 P_____O___P___ SH281963 -33.4161 161.176 -1 -32.0000 161.300 998 TC -33.4115 161.176 2 20 162
1963035S17151 1963 17 SP MM NOT_NAMED 1963-02-07 00:00:00 TS -33.7000 161.300 main 820 820 O_________O___ jtwc_sh SH281963 -33.7000 161.300 -1 -33.7000 161.300 2 20 164
1963035S17151 1963 17 SP MM NOT_NAMED 1963-02-07 03:00:00 TS -34.6399 161.630 main 874 874 P_________P___ SH281963 -34.6348 161.658 -1 -34.6553 161.603 2 20 164
1963035S17151 1963 17 SP MM NOT_NAMED 1963-02-07 06:00:00 TS -35.6089 161.949 main 934 934 O_________P___ jtwc_sh SH281963 -35.6000 162.000 -1 -35.6357 161.894 2 20 165
1963035S17151 1963 17 SP MM NOT_NAMED 1963-02-07 09:00:00 TS -36.5610 162.273 main 958 880 P_________P___ SH281963 -36.5593 162.306 -1 -36.5734 162.238 2 19 161
1963035S17151 1963 17 SP MM NOT_NAMED 1963-02-07 12:00:00 TS -37.4000 162.700 main 880 796 O_________O___ jtwc_sh SH281963 -37.4000 162.700 -1 -37.4000 162.700 2 17 151
1963035S17151 1963 17 SP MM NOT_NAMED 1963-02-07 15:00:00 TS -38.0366 163.296 main 796 718 P_________P___ SH281963 -38.0168 163.261 -1 -38.0380 163.337 2 16 137
1963035S17151 1963 17 SP MM NOT_NAMED 1963-02-07 18:00:00 TS -38.5391 164.050 main 714 633 O_________P___ jtwc_sh SH281963 -38.5000 164.000 -1 -38.5564 164.102 2 16 127
1963035S17151 1963 17 SP MM NOT_NAMED 1963-02-07 21:00:00 TS -38.9908 164.926 main 633 548 P_________P___ SH281963 -38.9723 164.891 -1 -38.9965 164.966 2 17 121
1963035S17151 1963 17 SP MM NOT_NAMED 1963-02-08 00:00:00 TS -39.4000 165.900 main 541 445 O_________O___ jtwc_sh SH281963 -39.4000 165.900 -1 -39.4000 165.900 2 17 119
1963035S17151 1963 17 SP MM NOT_NAMED 1963-02-08 03:00:00 TS -39.8333 166.911 main 445 349 P_________P___ SH281963 -39.8071 166.944 -1 -39.8622 166.880 2 18 118
1963035S17151 1963 17 SP MM NOT_NAMED 1963-02-08 06:00:00 TS -40.2479 167.955 main 342 254 O_________P___ jtwc_sh SH281963 -40.2000 168.000 -1 -40.2914 167.918 2 18 117
1963035S17151 1963 17 SP MM NOT_NAMED 1963-02-08 09:00:00 TS -40.6494 168.992 main 247 160 P_________P___ SH281963 -40.6216 169.015 -1 -40.6746 168.973 2 17 116
1963035S17151 1963 17 SP MM NOT_NAMED 1963-02-08 12:00:00 TS -41.0000 170.000 main 153 74 O_________O___ jtwc_sh SH281963 -41.0000 170.000 -1 -41.0000 170.000 2 16 113
1963035S17151 1963 17 SP MM NOT_NAMED 1963-02-08 15:00:00 TS -41.2786 170.959 main 69 13 P_________P___ SH281963 -41.2869 170.973 -1 -41.2618 170.964 2 15 109
1963035S17151 1963 17 SP MM NOT_NAMED 1963-02-08 18:00:00 TS -41.4930 171.868 main 8 0 O_________P___ jtwc_sh SH281963 -41.5000 171.900 -1 -41.4720 171.873 2 14 106
1963035S17151 1963 17 SP MM NOT_NAMED 1963-02-08 21:00:00 TS -41.6601 172.743 main 0 0 P_________P___ SH281963 -41.6636 172.767 -1 -41.6464 172.745 2 13 103
1963035S17151 1963 17 SP MM NOT_NAMED 1963-02-09 00:00:00 TS -41.8000 173.600 main 0 O_________O___ jtwc_sh SH281963 -41.8000 173.600 -1 -41.8000 173.600 2 13 102

Digital Typhoon Data and Search

About IBTrACS Database

This database is a web-friendly format of International Best Track Archive for Climate Stewardship (IBTrACS), a global best track data archive curated by NOAA dating back to 1842.

Updated: 2021-10-21